Terminal Aerodrome Forecast
Issued by NWS Central Illinois

Home | Current Version | Previous Version | Text Only | Print | Product List | Glossary On
Versions: 1 2 3 4 5 6 7 8 9 10 11 12 13 14 15 16 17 18 19 20 21
679
FTUS43 KILX 131330 AAA
TAFPIA
TAF AMD
KPIA 131330Z 1314/1412 34007KT P6SM BKN200
     FM140100 12004KT P6SM OVC200
     FM140700 13010KT 3SM -SN OVC035
     FM141000 13012KT 1SM -SN BR OVC015=

USA.gov is the U.S. government's official web portal to all federal, state and local government web resources and services.